Time,TemperatureF,DewpointF,PressureIn,WindDirection,WindDirectionDegrees,WindSpeedMPH,WindSpeedGustMPH,Humidity,HourlyPrecipIn,Conditions,Clouds,dailyrainin,SoftwareType,DateUTC
2013-08-26 00:00:00,40.0,40.0,-100.00,East,95,5.0,16.0,99,-99.99,,,-99.99,,2013-08-26 06:00:00,
2013-08-26 00:52:00,40.0,40.0,-100.00,East,95,5.0,16.0,99,-99.99,,,-99.99,,2013-08-26 06:52:00,
2013-08-26 01:00:00,40.0,40.0,-100.00,SE,128,7.0,20.0,99,-99.99,,,-99.99,,2013-08-26 07:00:00,
2013-08-26 01:52:00,40.0,40.0,-100.00,SE,128,7.0,20.0,99,-99.99,,,-99.99,,2013-08-26 07:52:00,
2013-08-26 02:00:00,40.0,39.0,-100.00,SE,136,14.0,33.0,99,-99.99,,,-99.99,,2013-08-26 08:00:00,
2013-08-26 02:52:00,40.0,39.0,-100.00,SE,136,14.0,33.0,99,-99.99,,,-99.99,,2013-08-26 08:52:00,
2013-08-26 03:00:00,39.0,39.0,-100.00,SE,126,12.0,32.0,99,-99.99,,,-99.99,,2013-08-26 09:00:00,
2013-08-26 03:53:00,39.0,39.0,-100.00,SE,126,12.0,32.0,99,-99.99,,,-99.99,,2013-08-26 09:53:00,
2013-08-26 04:00:00,40.0,39.0,-100.00,SE,133,12.0,29.0,99,-99.99,,,-99.99,,2013-08-26 10:00:00,
2013-08-26 04:52:00,40.0,39.0,-100.00,SE,133,12.0,29.0,99,-99.99,,,-99.99,,2013-08-26 10:52:00,
2013-08-26 05:00:00,40.0,40.0,-100.00,SE,130,11.0,26.0,99,-99.99,,,-99.99,,2013-08-26 11:00:00,
2013-08-26 05:52:00,40.0,40.0,-100.00,SE,130,11.0,26.0,99,-99.99,,,-99.99,,2013-08-26 11:52:00,
2013-08-26 06:00:00,40.0,40.0,-100.00,SE,142,13.0,27.0,99,-99.99,,,-99.99,,2013-08-26 12:00:00,
2013-08-26 06:52:00,40.0,40.0,-100.00,SE,142,13.0,27.0,99,-99.99,,,-99.99,,2013-08-26 12:52:00,
2013-08-26 07:00:00,40.0,40.0,-100.00,SE,143,13.0,26.0,99,-99.99,,,-99.99,,2013-08-26 13:00:00,
2013-08-26 07:52:00,40.0,40.0,-100.00,SE,143,13.0,26.0,99,-99.99,,,-99.99,,2013-08-26 13:52:00,
2013-08-26 08:00:00,40.0,40.0,-100.00,SE,140,14.0,32.0,99,-99.99,,,-99.99,,2013-08-26 14:00:00,
2013-08-26 08:52:00,40.0,40.0,-100.00,SE,140,14.0,32.0,99,-99.99,,,-99.99,,2013-08-26 14:52:00,
2013-08-26 09:00:00,40.0,40.0,-100.00,SSE,161,14.0,28.0,99,-99.99,,,-99.99,,2013-08-26 15:00:00,
2013-08-26 09:59:00,40.0,40.0,-100.00,SSE,161,14.0,28.0,99,-99.99,,,-99.99,,2013-08-26 15:59:00,
2013-08-26 10:00:00,40.0,40.0,-100.00,SSE,148,15.0,28.0,99,-99.99,,,-99.99,,2013-08-26 16:00:00,
2013-08-26 10:59:00,40.0,40.0,-100.00,SSE,148,15.0,28.0,99,-99.99,,,-99.99,,2013-08-26 16:59:00,
2013-08-26 11:00:00,41.0,41.0,-100.00,SSE,154,14.0,27.0,99,-99.99,,,-99.99,,2013-08-26 17:00:00,
2013-08-26 11:53:00,41.0,41.0,-100.00,SSE,154,14.0,27.0,99,-99.99,,,-99.99,,2013-08-26 17:53:00,
2013-08-26 12:00:00,42.0,42.0,-100.00,SSE,152,10.0,22.0,99,-99.99,,,-99.99,,2013-08-26 18:00:00,
2013-08-26 12:52:00,42.0,42.0,-100.00,SSE,152,10.0,22.0,99,-99.99,,,-99.99,,2013-08-26 18:52:00,
2013-08-26 13:00:00,43.0,42.0,-100.00,SSE,156,9.0,19.0,98,-99.99,,,-99.99,,2013-08-26 19:00:00,
2013-08-26 13:52:00,43.0,42.0,-100.00,SSE,156,9.0,19.0,98,-99.99,,,-99.99,,2013-08-26 19:52:00,
2013-08-26 14:00:00,43.0,-99.9,-100.00,South,171,9.0,17.0,27,-99.99,,,-99.99,,2013-08-26 20:00:00,
2013-08-26 14:52:00,43.0,-99.9,-100.00,South,171,9.0,17.0,27,-99.99,,,-99.99,,2013-08-26 20:52:00,
2013-08-26 15:00:00,47.0,-99.9,-100.00,South,186,6.0,14.0,30,-99.99,,,-99.99,,2013-08-26 21:00:00,
2013-08-26 15:55:00,47.0,-99.9,-100.00,South,186,6.0,14.0,30,-99.99,,,-99.99,,2013-08-26 21:55:00,
2013-08-26 16:00:00,47.0,42.0,-100.00,South,181,10.0,20.0,82,-99.99,,,-99.99,,2013-08-26 22:00:00,
2013-08-26 16:53:00,47.0,42.0,-100.00,South,181,10.0,20.0,82,-99.99,,,-99.99,,2013-08-26 22:53:00,
2013-08-26 17:00:00,46.0,43.0,-100.00,SSE,161,8.0,16.0,89,-99.99,,,-99.99,,2013-08-26 23:00:00,
2013-08-26 17:52:00,46.0,43.0,-100.00,SSE,161,8.0,16.0,89,-99.99,,,-99.99,,2013-08-26 23:52:00,
2013-08-26 18:00:00,46.0,41.0,-100.00,SE,146,5.0,15.0,80,-99.99,,,-99.99,,2013-08-27 00:00:00,
2013-08-26 18:52:00,46.0,41.0,-100.00,SE,146,5.0,15.0,80,-99.99,,,-99.99,,2013-08-27 00:52:00,
2013-08-26 19:00:00,46.0,-99.9,-100.00,SSE,159,7.0,17.0,29,-99.99,,,-99.99,,2013-08-27 01:00:00,
2013-08-26 19:52:00,46.0,-99.9,-100.00,SSE,159,7.0,17.0,29,-99.99,,,-99.99,,2013-08-27 01:52:00,
2013-08-26 20:00:00,46.0,-99.9,-100.00,South,173,3.0,10.0,30,-99.99,,,-99.99,,2013-08-27 02:00:00,
2013-08-26 20:52:00,46.0,-99.9,-100.00,South,173,3.0,10.0,30,-99.99,,,-99.99,,2013-08-27 02:52:00,
2013-08-26 21:00:00,43.0,-99.9,-100.00,South,172,11.0,18.0,35,-99.99,,,-99.99,,2013-08-27 03:00:00,
2013-08-26 21:58:00,43.0,-99.9,-100.00,South,172,11.0,18.0,35,-99.99,,,-99.99,,2013-08-27 03:58:00,
2013-08-26 22:00:00,42.0,-99.9,-100.00,SSE,164,9.0,18.0,33,-99.99,,,-99.99,,2013-08-27 04:00:00,
2013-08-26 22:54:00,42.0,-99.9,-100.00,SSE,164,9.0,18.0,33,-99.99,,,-99.99,,2013-08-27 04:54:00,
2013-08-26 23:00:00,42.0,-99.9,-100.00,South,174,11.0,20.0,35,-99.99,,,-99.99,,2013-08-27 05:00:00,
2013-08-26 23:52:00,42.0,-99.9,-100.00,South,174,11.0,20.0,35,-99.99,,,-99.99,,2013-08-27 05:52:00,